Time;durP1;ratioP1;P1;durP2;ratioP2;P2;SDS_P1;SDS_P2;PMS_P1;PMS_P2;Temp;Humidity;BMP_temperature;BMP_pressure;BME280_temperature;BME280_humidity;BME280_pressure;Samples;Min_cycle;Max_cycle;Signal;HPM_P1;HPM_P2
2023/02/08 00:00:41;;;;;;;20.70;13.37;;;-4.50;70.60;;;-5.21;72.49;100073.81;5083543;28;20450;-70
2023/02/08 00:03:10;;;;;;;15.87;11.20;;;-4.60;70.80;;;-5.36;73.04;100063.91;5080806;28;20447;-70
2023/02/08 00:05:38;;;;;;;19.13;12.27;;;-4.70;71.20;;;-5.36;73.36;100069.19;5084974;28;20466;-69
2023/02/08 00:08:05;;;;;;;18.23;12.07;;;-4.80;71.70;;;-5.28;73.12;100062.66;5076729;28;20473;-71
2023/02/08 00:10:33;;;;;;;17.60;11.10;;;-4.80;72.60;;;-5.16;72.89;100061.28;5084345;28;20464;-70
2023/02/08 00:13:00;;;;;;;19.30;12.67;;;-4.60;72.80;;;-5.15;72.35;100051.63;5082797;28;20455;-69
2023/02/08 00:15:27;;;;;;;15.83;12.50;;;-4.50;72.80;;;-5.16;72.71;100053.38;5080133;28;20468;-69
2023/02/08 00:17:55;;;;;;;17.97;11.53;;;-4.50;72.10;;;-5.16;72.59;100061.28;5088758;28;20454;-69
2023/02/08 00:20:23;;;;;;;20.47;12.60;;;-4.50;72.00;;;-5.25;72.52;100061.66;5082840;28;20516;-69
2023/02/08 00:22:51;;;;;;;17.13;11.50;;;-4.60;71.80;;;-5.37;72.70;100052.50;5082201;28;20441;-70
2023/02/08 00:25:20;;;;;;;18.50;11.97;;;-4.60;71.80;;;-5.37;72.72;100054.28;5085492;28;20844;-69
2023/02/08 00:27:47;;;;;;;17.93;11.43;;;-4.60;71.80;;;-5.37;72.68;100067.47;5080579;28;20464;-69
2023/02/08 00:30:15;;;;;;;16.50;11.20;;;-4.60;71.90;;;-5.38;72.68;100068.34;5090301;28;20452;-68
2023/02/08 00:32:42;;;;;;;19.60;13.40;;;-4.60;71.90;;;-5.44;72.84;100067.69;5081234;28;21357;-68
2023/02/08 00:35:09;;;;;;;19.80;12.70;;;-4.70;71.80;;;-5.44;72.72;100065.06;5090407;28;20449;-68
2023/02/08 00:37:39;;;;;;;14.13;9.80;;;-4.70;72.10;;;-5.64;72.70;100034.25;5087780;28;20467;-69
2023/02/08 00:40:08;;;;;;;16.13;11.67;;;-4.80;71.90;;;-5.63;73.50;100054.41;5086402;28;20501;-69
2023/02/08 00:42:35;;;;;;;17.80;12.30;;;-4.90;72.10;;;-5.72;73.93;100055.66;5103484;28;20460;-69
2023/02/08 00:45:02;;;;;;;17.30;11.20;;;-5.00;72.60;;;-5.85;74.18;100063.19;5084892;28;20441;-70
2023/02/08 00:47:30;;;;;;;17.00;10.70;;;-5.20;73.20;;;-5.81;73.38;100065.69;5083423;28;20504;-69
2023/02/08 00:49:57;;;;;;;20.93;11.77;;;-5.20;73.80;;;-5.92;75.34;100060.84;5101460;28;21019;-68
2023/02/08 00:52:24;;;;;;;16.83;10.50;;;-5.30;74.10;;;-5.88;74.76;100057.19;5087222;28;20448;-67
2023/02/08 00:54:53;;;;;;;19.07;12.27;;;-5.30;75.00;;;-5.90;74.32;100062.53;5086218;28;20453;-68
2023/02/08 00:57:20;;;;;;;18.00;11.80;;;-5.30;74.80;;;-5.93;74.64;100067.03;5070301;28;20539;-68
2023/02/08 00:59:47;;;;;;;22.10;13.67;;;-5.30;75.10;;;-5.83;74.50;100071.03;5087694;28;20879;-68
2023/02/08 01:02:15;;;;;;;25.43;13.63;;;-5.30;75.80;;;-5.78;74.68;100073.47;5088848;28;20449;-69
2023/02/08 01:04:42;;;;;;;20.20;12.87;;;-5.20;75.30;;;-6.02;75.86;100077.03;5084964;28;20440;-67
2023/02/08 01:07:09;;;;;;;19.43;14.37;;;-5.20;75.50;;;-6.08;76.21;100077.28;5089780;28;20991;-68
2023/02/08 01:09:37;;;;;;;21.90;15.10;;;-5.30;75.80;;;-6.17;76.77;100080.25;5086544;28;20473;-67
2023/02/08 01:12:06;;;;;;;24.27;13.47;;;-5.40;76.40;;;-6.20;76.99;100077.75;5100768;28;20531;-68
2023/02/08 01:14:33;;;;;;;21.37;13.70;;;-5.50;76.90;;;-6.23;77.39;100077.84;5073707;28;20437;-69
2023/02/08 01:17:00;;;;;;;20.33;14.07;;;-5.60;77.60;;;-6.22;77.14;100084.84;5069673;28;20925;-68
2023/02/08 01:19:27;;;;;;;19.90;13.33;;;-5.70;79.00;;;-6.08;75.99;100082.53;5079277;28;20452;-69
2023/02/08 01:21:55;;;;;;;23.47;14.03;;;-5.50;78.20;;;-6.14;76.39;100080.13;5082860;28;20464;-69
2023/02/08 01:24:22;;;;;;;22.10;15.00;;;-5.50;77.50;;;-6.05;75.17;100069.25;5090217;28;20578;-69
2023/02/08 01:26:49;;;;;;;24.20;13.60;;;-5.40;77.80;;;-5.92;75.03;100066.13;5077559;28;20460;-69
2023/02/08 01:29:18;;;;;;;19.77;13.00;;;-5.30;76.70;;;-5.98;74.79;100068.09;5076374;28;20476;-69
2023/02/08 01:31:46;;;;;;;17.33;12.07;;;-5.30;75.60;;;-6.00;74.54;100063.78;5082817;28;21009;-69
2023/02/08 01:34:13;;;;;;;21.60;13.67;;;-5.30;75.60;;;-5.94;74.10;100078.50;5073808;28;20444;-68
2023/02/08 01:36:42;;;;;;;15.97;11.47;;;-5.30;74.60;;;-5.93;73.84;100072.31;5070039;28;20459;-69
2023/02/08 01:39:11;;;;;;;19.63;12.53;;;-5.20;74.50;;;-5.93;73.99;100064.41;5093455;28;20441;-69
2023/02/08 01:41:43;;;;;;;17.30;11.63;;;-5.20;74.00;;;-5.87;73.50;100069.41;5077935;28;20956;-69
2023/02/08 01:45:02;;;;;;;20.50;12.30;;;-5.20;73.60;;;-5.89;73.07;100066.00;5072502;28;20557;-70
2023/02/08 01:47:31;;;;;;;19.93;11.67;;;-5.20;73.60;;;-5.99;73.78;100063.75;5105660;28;20858;-68
2023/02/08 01:49:59;;;;;;;23.37;13.43;;;-5.20;73.80;;;-6.08;73.89;100063.25;5103990;28;20537;-69
2023/02/08 01:52:28;;;;;;;19.33;13.07;;;-5.20;73.80;;;-6.08;74.42;100058.84;5080813;28;20466;-70
2023/02/08 01:55:00;;;;;;;19.93;11.73;;;-5.30;74.20;;;-6.06;74.61;100061.44;5086750;28;20443;-70
2023/02/08 01:57:28;;;;;;;20.73;12.00;;;-5.30;74.60;;;-6.08;74.92;100063.25;5094866;27;20457;-69
2023/02/08 01:59:58;;;;;;;16.40;11.03;;;-5.30;74.70;;;-6.01;74.38;100062.91;5081948;28;20505;-69
2023/02/08 02:02:27;;;;;;;16.23;11.50;;;-5.30;74.40;;;-6.04;74.09;100056.97;5081919;28;20447;-69
2023/02/08 02:04:56;;;;;;;19.20;12.40;;;-5.20;73.80;;;-6.07;74.40;100051.78;5098598;28;20457;-70
2023/02/08 02:07:28;;;;;;;18.17;11.20;;;-5.30;74.00;;;-6.10;73.76;100042.25;5094222;28;20439;-69
2023/02/08 02:10:04;;;;;;;19.10;11.67;;;-5.30;74.00;;;-6.04;73.82;100060.44;5087112;28;20964;-70
2023/02/08 02:12:33;;;;;;;20.03;11.40;;;-5.30;73.60;;;-6.06;73.15;100048.28;5087374;28;20452;-69
2023/02/08 02:15:01;;;;;;;22.23;12.70;;;-5.30;73.30;;;-6.30;74.67;100051.75;5082922;28;20449;-70
2023/02/08 02:17:29;;;;;;;15.80;11.10;;;-5.50;73.20;;;-6.38;74.79;100052.97;5082179;28;20452;-70
2023/02/08 02:20:09;;;;;;;20.70;12.90;;;-5.70;74.00;;;-6.35;74.16;100058.13;5084956;28;20447;-70
2023/02/08 02:23:08;;;;;;;20.40;11.73;;;-5.70;74.70;;;-6.29;74.16;100050.88;5085116;28;20451;-69
2023/02/08 02:26:30;;;;;;;24.47;11.57;;;-5.70;74.70;;;-6.21;73.81;100055.84;5085843;28;20193;-68
2023/02/08 02:30:15;;;;;;;23.77;10.90;;;-5.60;74.60;;;-6.16;73.40;100063.53;5078729;28;20467;-69
2023/02/08 02:32:58;;;;;;;17.87;11.00;;;-5.50;73.70;;;-6.13;73.72;100052.91;5056667;28;20452;-68
2023/02/08 02:35:35;;;;;;;20.10;12.57;;;-5.40;73.60;;;-6.08;73.76;100050.09;5082740;28;20774;-70
2023/02/08 02:38:11;;;;;;;20.37;12.50;;;-5.30;73.60;;;-6.13;73.56;100052.91;5083096;28;20514;-69
2023/02/08 02:40:50;;;;;;;20.20;12.07;;;-5.30;73.10;;;-6.15;73.18;100052.97;5082628;28;20927;-71
2023/02/08 02:43:41;;;;;;;19.80;12.63;;;-5.40;72.80;;;-6.13;72.83;100045.03;5073625;28;20574;-70
2023/02/08 02:46:22;;;;;;;19.90;12.90;;;-5.30;72.50;;;-6.01;72.69;100052.38;5076516;28;20933;-70
2023/02/08 02:48:58;;;;;;;26.53;12.47;;;-5.20;72.10;;;-6.13;72.56;100034.50;5080995;28;20476;-68
2023/02/08 02:51:29;;;;;;;21.30;10.70;;;-5.10;71.90;;;-5.93;71.91;100051.25;5084720;28;20508;-68
2023/02/08 02:54:03;;;;;;;16.60;11.23;;;-5.10;71.40;;;-5.91;72.02;100047.66;5084397;28;20541;-69
2023/02/08 02:56:35;;;;;;;19.17;11.07;;;-5.00;71.00;;;-6.00;71.79;100046.19;5075385;28;20502;-69
2023/02/08 02:59:06;;;;;;;16.97;12.33;;;-5.10;71.20;;;-5.98;71.39;100054.94;5081742;28;20459;-70
2023/02/08 03:01:34;;;;;;;16.73;10.83;;;-5.20;71.20;;;-6.10;72.03;100042.25;5096467;28;20456;-70
2023/02/08 03:04:14;;;;;;;18.70;12.33;;;-5.30;71.20;;;-6.14;72.42;100043.28;5078496;28;20453;-69
2023/02/08 03:07:01;;;;;;;21.37;11.80;;;-5.30;71.50;;;-6.19;72.15;100038.22;5075251;28;20459;-69
2023/02/08 03:09:50;;;;;;;17.20;11.20;;;-5.40;72.10;;;-5.98;72.15;100052.28;5079809;28;20602;-69
2023/02/08 03:12:36;;;;;;;16.93;11.57;;;-5.40;72.10;;;-6.38;71.10;99963.50;5077831;28;20488;-69
2023/02/08 03:15:15;;;;;;;19.13;11.30;;;-5.20;71.30;;;-5.92;71.26;100045.91;5081123;28;20447;-69
2023/02/08 03:18:01;;;;;;;16.40;10.77;;;-5.00;71.00;;;-5.91;71.51;100044.13;5086767;28;20564;-68
2023/02/08 03:20:33;;;;;;;18.23;10.57;;;-5.00;70.80;;;-5.89;71.63;100039.66;5075683;28;20467;-69
2023/02/08 03:23:08;;;;;;;23.47;12.53;;;-5.00;70.60;;;-5.89;71.51;100050.19;5077112;28;20514;-70
2023/02/08 03:25:47;;;;;;;22.97;12.50;;;-4.90;70.50;;;-6.02;71.67;100016.47;5077037;28;20460;-68
2023/02/08 03:28:22;;;;;;;22.10;12.20;;;-4.90;70.60;;;-5.86;71.03;100045.69;5080096;28;20544;-69
2023/02/08 03:31:00;;;;;;;22.57;10.70;;;-4.90;70.50;;;-5.83;71.44;100039.44;5083824;28;20456;-70
2023/02/08 03:33:35;;;;;;;19.13;12.17;;;-4.90;70.50;;;-5.90;71.80;100048.47;5093469;28;20451;-70
2023/02/08 03:36:08;;;;;;;19.00;11.77;;;-4.90;70.50;;;-5.91;71.55;100046.78;5084734;28;20451;-68
2023/02/08 03:38:40;;;;;;;20.47;11.77;;;-5.00;70.30;;;-6.29;71.36;99994.75;5086959;28;20468;-69
2023/02/08 03:41:13;;;;;;;18.70;11.50;;;-4.90;70.30;;;-5.88;71.54;100054.53;5079347;28;20464;-69
2023/02/08 03:43:45;;;;;;;18.87;11.57;;;-4.90;70.30;;;-5.92;71.20;100034.53;5081934;28;20486;-67
2023/02/08 03:46:18;;;;;;;20.13;11.70;;;-5.00;70.40;;;-5.87;71.18;100051.00;5083120;28;20459;-69
2023/02/08 03:48:51;;;;;;;25.53;12.70;;;-5.00;70.40;;;-5.88;71.48;100046.66;5086715;28;20483;-68
2023/02/08 03:51:22;;;;;;;16.50;11.00;;;-5.00;70.50;;;-5.86;71.52;100050.06;5080634;28;20521;-69
2023/02/08 03:53:52;;;;;;;23.67;11.93;;;-5.10;70.80;;;-6.05;71.99;100044.72;5104749;28;20540;-68
2023/02/08 03:56:28;;;;;;;20.10;12.90;;;-5.30;71.00;;;-6.18;72.39;100039.06;5087710;28;20511;-68
2023/02/08 03:59:03;;;;;;;18.27;11.57;;;-5.40;71.10;;;-6.16;72.53;100038.09;5100990;27;20449;-68
2023/02/08 04:01:36;;;;;;;17.33;11.47;;;-5.50;71.50;;;-6.10;72.37;100039.63;5077792;28;20460;-69
2023/02/08 04:04:04;;;;;;;22.27;13.37;;;-5.30;71.60;;;-6.21;72.67;100033.91;5086554;28;20521;-69
2023/02/08 04:06:33;;;;;;;19.77;12.00;;;-5.40;71.30;;;-6.16;72.52;100043.34;5085389;28;20555;-69
2023/02/08 04:09:00;;;;;;;19.73;12.80;;;-5.40;71.70;;;-6.18;72.57;100045.19;5079546;28;20472;-68
2023/02/08 04:11:27;;;;;;;19.97;12.57;;;-5.50;71.90;;;-6.23;72.54;100035.75;5087696;28;20455;-69
2023/02/08 04:13:54;;;;;;;20.97;12.80;;;-5.50;72.00;;;-6.79;72.95;99954.53;5084259;28;20450;-69
2023/02/08 04:16:22;;;;;;;21.07;12.50;;;-5.50;71.90;;;-6.39;73.14;100046.88;5088460;28;20474;-69
2023/02/08 04:18:49;;;;;;;27.87;13.70;;;-5.60;71.90;;;-6.41;72.97;100030.28;5090341;28;20459;-69
2023/02/08 04:21:16;;;;;;;17.30;11.83;;;-5.60;72.40;;;-6.28;73.15;100044.69;5082522;28;20452;-70
2023/02/08 04:23:45;;;;;;;20.73;13.03;;;-5.50;72.50;;;-6.36;72.99;100036.22;5092063;28;20455;-68
2023/02/08 04:26:12;;;;;;;20.70;12.57;;;-5.60;72.10;;;-6.38;73.33;100048.56;5085890;28;20527;-69
2023/02/08 04:28:39;;;;;;;15.93;11.53;;;-5.70;72.30;;;-6.52;73.85;100049.09;5085466;28;20452;-68
2023/02/08 04:31:06;;;;;;;21.30;12.43;;;-5.80;72.70;;;-6.46;74.34;100055.88;5080596;28;20455;-69
2023/02/08 04:33:33;;;;;;;23.00;12.43;;;-5.80;73.30;;;-6.46;74.17;100037.47;5084384;28;20590;-71
2023/02/08 04:36:01;;;;;;;22.40;12.77;;;-5.70;73.40;;;-6.63;74.26;100022.34;5088245;28;20465;-68
2023/02/08 04:38:28;;;;;;;19.43;11.93;;;-5.70;73.30;;;-6.49;74.12;100040.22;5086205;28;20452;-69
2023/02/08 04:40:56;;;;;;;20.60;12.50;;;-5.70;73.00;;;-6.54;73.92;100040.38;5084056;28;20487;-69
2023/02/08 04:43:24;;;;;;;22.80;12.53;;;-5.70;73.00;;;-6.61;74.15;100047.63;5077601;28;20456;-69
2023/02/08 04:45:51;;;;;;;18.80;12.13;;;-5.80;72.90;;;-7.18;74.78;99974.34;5087139;28;20501;-68
2023/02/08 04:48:19;;;;;;;18.90;12.03;;;-6.00;73.20;;;-6.89;75.73;100047.78;5090402;28;20454;-68
2023/02/08 04:50:47;;;;;;;18.63;11.30;;;-6.10;73.90;;;-6.90;76.24;100052.19;5083365;28;20476;-69
2023/02/08 04:53:14;;;;;;;19.80;12.30;;;-6.30;75.00;;;-6.77;75.46;100041.22;5084768;28;20452;-69
2023/02/08 04:55:41;;;;;;;21.57;12.63;;;-6.20;76.10;;;-6.69;75.00;100050.56;5085502;28;20452;-70
2023/02/08 04:58:10;;;;;;;21.87;13.03;;;-6.10;76.20;;;-6.66;75.34;100044.34;5084562;28;20447;-68
2023/02/08 05:00:37;;;;;;;25.03;13.23;;;-6.00;75.40;;;-6.66;75.05;100039.06;5082425;28;20448;-69
2023/02/08 05:03:05;;;;;;;23.10;13.55;;;-5.90;75.00;;;-6.63;74.74;100038.94;5068952;28;20450;-70
2023/02/08 05:05:32;;;;;;;23.20;12.70;;;-5.90;74.80;;;-6.66;74.82;100041.69;5077349;28;20199;-70
2023/02/08 05:08:00;;;;;;;24.00;12.73;;;-5.90;74.50;;;-6.69;74.94;100049.72;5088551;28;20460;-69
2023/02/08 05:10:28;;;;;;;24.00;14.43;;;-5.90;74.60;;;-6.72;75.47;100055.09;5090778;28;20471;-70
2023/02/08 05:12:55;;;;;;;20.20;11.80;;;-5.90;74.80;;;-6.80;75.91;100054.50;5085170;28;20465;-70
2023/02/08 05:15:25;;;;;;;19.90;13.10;;;-5.90;74.70;;;-6.78;75.35;100060.53;5085344;28;21043;-70
2023/02/08 05:17:53;;;;;;;23.60;13.57;;;-6.00;75.00;;;-6.88;76.09;100047.75;5084655;28;20460;-69
2023/02/08 05:20:20;;;;;;;27.70;14.17;;;-6.00;75.00;;;-6.98;76.34;100043.72;5079901;28;20952;-72
2023/02/08 05:22:47;;;;;;;21.90;12.93;;;-6.20;75.40;;;-7.40;76.50;99969.81;5085611;28;20956;-70
2023/02/08 05:25:16;;;;;;;27.73;14.30;;;-6.20;76.40;;;-6.88;76.47;100046.88;5098310;28;20444;-71
2023/02/08 05:27:44;;;;;;;26.63;14.33;;;-6.20;77.10;;;-6.89;76.28;100046.03;5079816;28;20575;-71
2023/02/08 05:30:12;;;;;;;22.97;13.60;;;-6.10;77.10;;;-6.78;75.83;100045.66;5081163;28;20993;-70
2023/02/08 05:32:41;;;;;;;22.37;13.53;;;-6.10;76.40;;;-6.75;75.92;100049.91;5079478;28;20459;-71
2023/02/08 05:35:08;;;;;;;21.23;12.97;;;-6.00;75.80;;;-6.75;75.74;100044.66;5085316;28;20509;-70
2023/02/08 05:37:36;;;;;;;20.70;13.70;;;-5.90;75.80;;;-6.72;75.91;100039.31;5088844;28;20987;-70
2023/02/08 05:40:03;;;;;;;24.93;12.17;;;-5.90;75.60;;;-6.75;75.50;100042.03;5075549;28;20454;-67
2023/02/08 05:42:30;;;;;;;21.80;13.20;;;-5.90;75.60;;;-6.72;76.27;100041.94;5084376;28;20445;-69
2023/02/08 05:44:57;;;;;;;24.57;15.20;;;-5.90;75.70;;;-6.85;76.04;100052.88;5085877;28;20455;-68
2023/02/08 05:47:25;;;;;;;23.13;14.50;;;-5.90;75.60;;;-6.83;76.32;100051.06;5074577;28;20939;-69
2023/02/08 05:49:53;;;;;;;27.07;14.23;;;-5.90;75.90;;;-6.79;76.85;100050.94;5080327;28;20541;-68
2023/02/08 05:52:21;;;;;;;29.50;14.53;;;-5.90;76.60;;;-6.75;76.67;100050.78;5089865;28;20457;-67
2023/02/08 05:54:48;;;;;;;24.63;14.13;;;-6.00;76.50;;;-6.79;76.60;100037.78;5092922;28;20777;-67
2023/02/08 05:57:15;;;;;;;26.70;15.10;;;-6.00;76.60;;;-6.76;76.50;100053.47;5092137;28;20445;-67
2023/02/08 05:59:43;;;;;;;27.07;14.40;;;-5.90;76.50;;;-6.81;76.38;100044.88;5092084;28;20452;-67
2023/02/08 06:02:10;;;;;;;22.97;14.60;;;-6.00;76.30;;;-6.79;76.29;100045.69;5086548;28;20461;-67
2023/02/08 06:04:38;;;;;;;26.60;14.63;;;-6.00;76.80;;;-6.81;76.64;100061.53;5095009;28;20444;-68
2023/02/08 06:07:07;;;;;;;27.53;15.30;;;-6.00;76.70;;;-6.84;76.56;100051.97;5086546;28;20460;-67
2023/02/08 06:09:34;;;;;;;23.10;13.53;;;-6.00;76.30;;;-7.28;76.66;99988.69;5082012;28;20514;-67
2023/02/08 06:12:01;;;;;;;22.33;13.80;;;-6.00;76.90;;;-6.91;77.20;100045.19;5080362;28;20760;-68
2023/02/08 06:14:29;;;;;;;24.83;15.37;;;-6.00;76.70;;;-6.86;76.73;100050.31;5076518;28;20970;-65
2023/02/08 06:16:56;;;;;;;27.17;14.75;;;-6.10;76.90;;;-6.92;77.10;100056.63;5076701;28;20927;-66
2023/02/08 06:19:23;;;;;;;23.50;14.60;;;-6.20;77.00;;;-6.93;77.17;100054.91;5084534;28;20190;-66
2023/02/08 06:21:51;;;;;;;23.93;14.87;;;-6.20;78.00;;;-6.97;77.10;100055.94;5088597;28;20456;-67
2023/02/08 06:24:19;;;;;;;23.73;15.50;;;-6.10;78.30;;;-6.87;76.99;100067.88;5088864;28;20457;-68
2023/02/08 06:26:47;;;;;;;25.27;15.47;;;-6.00;77.90;;;-6.89;77.19;100068.81;5077103;28;20471;-66
2023/02/08 06:29:14;;;;;;;27.40;15.83;;;-6.00;77.20;;;-6.84;76.81;100072.13;5076022;28;20457;-68
2023/02/08 06:31:42;;;;;;;25.77;15.80;;;-6.00;77.20;;;-6.90;76.84;100073.25;5074489;28;20454;-67
2023/02/08 06:34:09;;;;;;;31.13;16.00;;;-6.10;77.50;;;-6.93;77.21;100077.72;5076758;28;20468;-68
2023/02/08 06:36:36;;;;;;;27.50;16.20;;;-6.10;77.90;;;-6.85;77.40;100081.81;5075933;28;20601;-67
2023/02/08 06:39:04;;;;;;;24.83;15.80;;;-6.10;77.50;;;-6.84;77.19;100080.03;5089346;27;20475;-69
2023/02/08 06:41:32;;;;;;;25.67;14.67;;;-6.00;78.00;;;-6.91;77.20;100071.50;5089647;28;20459;-71
2023/02/08 06:44:00;;;;;;;24.83;15.57;;;-6.00;77.50;;;-6.91;77.17;100082.00;5076777;28;20445;-72
2023/02/08 06:46:27;;;;;;;27.73;16.50;;;-6.00;77.60;;;-6.75;77.39;100077.06;5082810;28;20510;-74
2023/02/08 06:48:56;;;;;;;32.97;15.87;;;-5.90;77.30;;;-6.69;77.22;100082.09;5075797;28;20668;-71
2023/02/08 06:51:24;;;;;;;29.33;16.20;;;-5.90;77.10;;;-6.67;76.92;100076.81;5070151;28;20560;-71
2023/02/08 06:53:51;;;;;;;32.60;17.17;;;-5.90;77.80;;;-6.53;77.17;100071.03;5077629;28;20929;-72
2023/02/08 06:56:18;;;;;;;35.00;18.77;;;-5.70;78.20;;;-6.53;76.64;100065.78;5078195;28;20932;-72
2023/02/08 06:58:47;;;;;;;29.00;16.40;;;-5.70;77.40;;;-6.63;76.65;100065.25;5072252;28;20459;-71
2023/02/08 07:01:15;;;;;;;24.20;15.10;;;-5.80;76.50;;;-6.66;76.45;100072.41;5075822;28;20449;-71
2023/02/08 07:03:42;;;;;;;29.13;17.10;;;-5.80;76.40;;;-6.76;76.52;100077.13;5083260;28;20445;-73
2023/02/08 07:06:13;;;;;;;30.03;18.50;;;-5.80;76.20;;;-6.85;77.02;100068.66;5088225;28;20444;-71
2023/02/08 07:08:40;;;;;;;27.23;16.10;;;-5.80;76.00;;;-6.75;76.44;100065.69;5095408;28;20456;-70
2023/02/08 07:11:09;;;;;;;28.43;17.30;;;-5.80;76.10;;;-6.59;76.37;100069.50;5083570;28;20476;-71
2023/02/08 07:13:37;;;;;;;28.73;16.83;;;-5.70;76.30;;;-6.49;76.21;100066.53;5082183;28;20765;-72
2023/02/08 07:16:07;;;;;;;29.17;18.40;;;-5.60;75.90;;;-6.56;76.63;100064.13;5096502;28;20940;-75
2023/02/08 07:18:34;;;;;;;34.20;18.23;;;-5.60;75.60;;;-6.45;75.83;100070.75;5100027;28;20963;-74
2023/02/08 07:21:02;;;;;;;31.47;17.10;;;-5.50;75.20;;;-6.37;75.87;100070.47;5073946;28;20461;-76
2023/02/08 07:23:30;;;;;;;26.80;17.53;;;-5.40;74.90;;;-6.27;75.59;100062.19;5069484;28;20455;-75
2023/02/08 07:25:58;;;;;;;30.53;16.30;;;-5.30;74.90;;;-6.15;75.09;100070.50;5073747;28;20471;-73
2023/02/08 07:28:26;;;;;;;32.03;17.87;;;-5.20;74.40;;;-6.02;74.75;100066.50;5076062;28;20522;-76
2023/02/08 07:30:53;;;;;;;28.53;17.67;;;-5.10;74.30;;;-5.93;74.74;100069.69;5078715;28;20478;-73
2023/02/08 07:33:23;;;;;;;29.93;19.40;;;-5.00;74.00;;;-5.86;74.14;100065.88;5078882;28;20459;-72
2023/02/08 07:35:51;;;;;;;31.60;22.73;;;-4.90;73.50;;;-5.70;73.74;100072.25;5071006;28;20980;-74
2023/02/08 07:38:19;;;;;;;26.40;18.83;;;-4.80;73.20;;;-5.54;73.31;100076.91;5084481;28;20924;-74
2023/02/08 07:40:46;;;;;;;30.47;18.73;;;-4.60;72.80;;;-5.62;73.37;100063.19;5081177;28;20509;-73
2023/02/08 07:43:13;;;;;;;32.30;19.53;;;-4.60;72.70;;;-5.57;72.89;100074.38;5084793;28;20941;-72
2023/02/08 07:45:41;;;;;;;36.00;19.10;;;-4.60;72.10;;;-5.53;72.33;100062.81;5079470;28;20954;-74
2023/02/08 07:48:08;;;;;;;31.30;18.47;;;-4.50;72.00;;;-5.41;72.49;100062.31;5082452;28;20456;-75
2023/02/08 07:50:38;;;;;;;29.10;17.37;;;-4.50;72.00;;;-5.16;71.97;100082.38;5079023;28;20481;-71
2023/02/08 07:53:05;;;;;;;28.90;17.97;;;-4.40;71.80;;;-5.31;71.95;100090.91;5072521;28;20509;-73
2023/02/08 07:55:33;;;;;;;29.13;19.20;;;-4.40;71.50;;;-5.82;72.52;100017.44;5083646;28;20462;-73
2023/02/08 07:58:00;;;;;;;24.83;16.17;;;-4.40;71.40;;;-5.46;72.19;100064.28;5078517;28;20832;-73
2023/02/08 08:00:27;;;;;;;32.40;18.50;;;-4.40;71.20;;;-5.30;72.05;100076.81;5086484;28;20461;-74
2023/02/08 08:02:57;;;;;;;27.07;18.40;;;-4.30;71.20;;;-5.35;72.17;100077.00;5079439;28;20923;-75
2023/02/08 08:05:24;;;;;;;33.23;18.93;;;-4.30;71.10;;;-5.38;72.02;100071.88;5082219;28;20453;-71
2023/02/08 08:07:53;;;;;;;28.23;18.27;;;-4.30;71.00;;;-5.19;71.68;100076.38;5078137;28;20490;-72
2023/02/08 08:10:22;;;;;;;25.87;17.03;;;-4.20;71.20;;;-5.00;71.14;100077.31;5078685;28;20807;-73
2023/02/08 08:12:49;;;;;;;27.80;18.20;;;-4.20;70.90;;;-4.92;70.67;100069.09;5077464;28;20468;-73
2023/02/08 08:15:17;;;;;;;28.53;18.60;;;-4.00;70.70;;;-5.18;71.27;100063.13;5069841;28;20458;-70
2023/02/08 08:17:45;;;;;;;30.10;19.90;;;-4.10;70.50;;;-5.03;70.73;100066.88;5074880;28;20444;-71
2023/02/08 08:20:13;;;;;;;28.10;16.70;;;-4.00;70.10;;;-4.87;70.70;100063.59;5082290;28;21454;-74
2023/02/08 08:22:40;;;;;;;30.70;19.07;;;-3.90;70.30;;;-4.86;70.44;100063.53;5085182;28;20458;-74
2023/02/08 08:25:10;;;;;;;31.30;18.80;;;-3.90;70.00;;;-4.66;70.17;100069.69;5066012;28;20571;-69
2023/02/08 08:27:38;;;;;;;27.97;18.20;;;-3.80;70.00;;;-4.51;69.61;100046.19;5076982;28;20464;-70
2023/02/08 08:30:08;;;;;;;30.30;18.40;;;-3.70;70.10;;;-4.24;69.11;100062.59;5081042;28;20491;-70
2023/02/08 08:32:37;;;;;;;25.03;16.33;;;-3.60;70.20;;;-4.37;69.25;100062.28;5074180;28;20583;-70
2023/02/08 08:35:06;;;;;;;31.30;18.47;;;-3.50;69.70;;;-4.36;69.13;100068.41;5075537;28;20448;-70
2023/02/08 08:37:34;;;;;;;30.93;18.33;;;-3.50;69.40;;;-4.38;69.25;100060.56;5095279;27;20568;-70
2023/02/08 08:40:02;;;;;;;32.63;18.70;;;-3.50;69.20;;;-4.16;68.62;100060.44;5078068;28;20457;-70
2023/02/08 08:42:30;;;;;;;33.70;18.27;;;-3.40;69.30;;;-4.04;68.20;100055.50;5077862;28;20478;-71
2023/02/08 08:44:58;;;;;;;27.03;18.10;;;-3.30;69.20;;;-4.00;67.72;100055.31;5078731;28;20563;-72
2023/02/08 08:47:25;;;;;;;30.30;18.73;;;-3.20;68.90;;;-4.01;67.79;100055.34;5080780;28;20493;-71
2023/02/08 08:49:52;;;;;;;26.53;17.80;;;-3.20;68.40;;;-3.91;67.45;100048.72;5075741;28;20472;-69
2023/02/08 08:52:21;;;;;;;26.70;17.70;;;-3.10;68.30;;;-3.78;66.95;100054.28;5075865;28;20846;-69
2023/02/08 08:54:48;;;;;;;31.17;19.73;;;-3.00;68.20;;;-3.82;66.74;100054.47;5077775;28;20908;-71
2023/02/08 08:57:16;;;;;;;31.37;17.87;;;-2.90;67.80;;;-3.69;65.80;100052.97;5077079;28;20490;-71
2023/02/08 08:59:44;;;;;;;32.40;18.90;;;-2.80;67.30;;;-3.56;66.10;100050.59;5086474;28;21030;-70
2023/02/08 09:02:14;;;;;;;32.13;18.90;;;-2.80;67.30;;;-3.92;65.79;99958.97;5080495;28;20452;-71
2023/02/08 09:04:41;;;;;;;31.60;20.17;;;-2.70;67.00;;;-3.52;65.47;100031.00;5077214;28;20484;-70
2023/02/08 09:07:09;;;;;;;33.03;19.17;;;-2.60;66.40;;;-3.30;65.34;100037.84;5072062;28;20947;-71
2023/02/08 09:09:37;;;;;;;28.13;16.40;;;-2.50;66.40;;;-3.22;64.04;100037.47;5084632;27;20449;-72
2023/02/08 09:12:05;;;;;;;31.50;17.60;;;-2.40;65.50;;;-2.96;63.84;100033.47;5070644;28;20568;-70
2023/02/08 09:14:32;;;;;;;28.70;18.53;;;-2.30;65.20;;;-3.01;63.10;100019.66;5079239;28;20462;-70
2023/02/08 09:17:01;;;;;;;27.57;18.87;;;-2.20;64.70;;;-2.73;62.50;100044.69;5078681;28;20472;-70
2023/02/08 09:19:28;;;;;;;29.17;17.50;;;-2.10;63.80;;;-3.19;62.62;100019.66;5081970;28;20492;-70
2023/02/08 09:21:56;;;;;;;27.40;17.40;;;-2.10;62.90;;;-2.90;62.52;100045.53;5077828;28;20468;-70
2023/02/08 09:24:24;;;;;;;31.00;17.90;;;-2.10;63.10;;;-2.81;62.91;100052.16;5080903;28;20453;-71
2023/02/08 09:26:51;;;;;;;28.83;18.73;;;-2.10;63.30;;;-2.60;61.50;100051.03;5070159;28;20466;-71
2023/02/08 09:29:18;;;;;;;27.20;18.23;;;-1.90;62.70;;;-3.18;62.37;100007.31;5081984;28;20457;-70
2023/02/08 09:31:46;;;;;;;34.37;18.90;;;-1.90;62.00;;;-2.68;62.08;100053.22;5074980;28;20483;-69
2023/02/08 09:34:14;;;;;;;30.40;17.50;;;-1.90;62.30;;;-2.37;60.95;100046.28;5078690;28;20456;-72
2023/02/08 09:36:42;;;;;;;29.30;18.23;;;-1.70;61.90;;;-2.34;60.34;100056.75;5074694;28;20472;-69
2023/02/08 09:39:14;;;;;;;27.77;17.70;;;-1.60;61.00;;;-2.36;60.56;100053.28;5092851;27;20466;-71
2023/02/08 09:42:08;;;;;;;29.57;19.50;;;-1.60;60.60;;;-2.06;59.80;100041.97;5073536;28;20516;-71
2023/02/08 09:44:50;;;;;;;30.43;18.97;;;-1.40;60.50;;;-1.83;59.30;100050.44;5074570;28;20447;-72
2023/02/08 09:47:22;;;;;;;31.80;19.10;;;-1.30;60.20;;;-1.86;59.40;100030.25;5092423;28;20456;-74
2023/02/08 09:50:01;;;;;;;28.40;17.53;;;-1.10;59.80;;;-1.88;59.49;100036.63;5112264;28;20442;-72
2023/02/08 09:52:38;;;;;;;26.00;17.23;;;-1.10;59.20;;;-1.96;58.61;100045.00;5088363;28;20479;-72
2023/02/08 09:55:21;;;;;;;28.90;17.80;;;-1.10;58.00;;;-1.91;59.28;100042.06;5086662;28;20456;-73
2023/02/08 09:57:52;;;;;;;29.27;17.73;;;-1.10;58.60;;;-1.76;58.34;100045.66;5084818;28;20468;-70
2023/02/08 10:00:25;;;;;;;28.53;16.90;;;-1.00;58.00;;;-1.71;57.64;100033.84;5090721;27;21237;-72
2023/02/08 10:02:57;;;;;;;29.90;17.23;;;-0.90;57.50;;;-1.57;57.53;100024.25;5090889;28;20928;-71
2023/02/08 10:05:27;;;;;;;34.60;18.90;;;-0.90;57.20;;;-1.51;57.23;100031.84;5073949;28;20582;-71
2023/02/08 10:07:55;;;;;;;30.57;18.67;;;-0.80;57.10;;;-1.64;56.87;100028.19;5077293;28;20790;-69
2023/02/08 10:10:42;;;;;;;27.43;16.63;;;-0.70;56.10;;;-1.56;57.49;100031.28;5075735;28;20451;-71
2023/02/08 10:13:29;;;;;;;27.73;18.30;;;-0.80;56.00;;;-1.59;57.15;100020.84;5078247;28;20455;-70